Latest Weather Observations for Rhyll

IDV60901

Issued at 3:25 pm EST Friday 29 August 2014 (issued every 10 minutes, with the page automatically refreshed every 10 minutes)

About weather observations | Map of Melbourne area stations | Latest observations for Melbourne area | Other Formats
Station Details ID: 086373 Name: RHYLL Lat: -38.46 Lon: 145.31 Height: 13.4 m
Data from the previous 72 hours. | See also: Recent months at Rhyll
Date/Time
EST
Tmp

°C
App
Tmp
°C
Dew
Point
°C
Rel
Hum
%
Delta-T

°C
Wind Press
QNH
hPa
Press
MSL
hPa
Rain
since
9 am
mm
Dir
 
Spd
km/h
Gust
km/h
Spd
kts
Gust
kts
29/03:00pm 15.4 14.9 10.6 73 2.5 S 4 7 2 4 1028.0 1028.0 0.2
29/02:30pm 15.3 14.5 10.9 75 2.3 S 6 9 3 5 1028.2 1028.2 0.2
29/02:00pm 14.9 14.2 10.1 73 2.5 S 4 7 2 4 1028.2 1028.2 0.0
29/01:30pm 15.8 15.7 10.8 72 2.7 ENE 2 4 1 2 1028.4 1028.4 0.0
29/01:00pm 15.0 15.0 11.2 78 2.0 ESE 2 4 1 2 1028.7 1028.7 0.0
29/12:30pm 14.6 14.6 11.2 80 1.8 SSE 2 7 1 4 1029.2 1029.2 0.0
29/12:00pm 13.9 13.4 10.7 81 1.7 S 4 7 2 4 1029.6 1029.6 0.0
29/11:30am 14.9 15.1 13.1 89 1.0 ESE 4 7 2 4 1029.9 1029.9 0.0
29/11:00am 12.7 12.6 12.2 97 0.3 ENE 4 6 2 3 1030.0 1030.0 0.0
29/10:30am 11.7 11.4 11.5 99 0.1 NE 4 4 2 2 1030.0 1030.0 0.0
29/10:00am 11.0 10.9 10.8 99 0.1 NE 2 4 1 2 1030.1 1030.1 0.0
29/09:30am 10.8 10.6 10.6 99 0.1 NE 2 4 1 2 1030.2 1030.2 0.0
29/09:00am 11.1 10.6 10.9 99 0.1 ENE 4 6 2 3 1030.1 1030.1 0.2
29/08:30am 10.1 9.4 10.0 99 0.1 ENE 4 6 2 3 1029.9 1029.9 0.2
29/08:00am 9.5 8.6 9.4 99 0.0 NNE 4 6 2 3 1029.7 1029.7 0.2
29/07:30am 9.5 8.3 9.4 99 0.0 NE 6 9 3 5 1029.4 1029.4 0.2
29/07:00am 9.6 8.4 9.5 99 0.0 NE 6 7 3 4 1029.0 1029.0 0.2
29/06:30am 9.6 8.4 9.5 99 0.0 ENE 6 7 3 4 1028.8 1028.8 0.2
29/06:00am 9.2 8.3 9.1 99 0.0 ENE 4 6 2 3 1028.5 1028.5 0.2
29/05:30am 9.2 7.7 9.1 99 0.0 ENE 7 11 4 6 1028.2 1028.2 0.2
29/05:00am 9.1 7.6 9.0 99 0.0 ENE 7 9 4 5 1028.0 1028.0 0.2
29/04:30am 9.4 7.9 9.3 99 0.0 E 7 9 4 5 1028.1 1028.1 0.2
29/04:00am 10.3 9.0 10.1 99 0.1 E 7 11 4 6 1028.1 1028.1 0.2
29/03:30am 10.7 9.6 10.5 99 0.1 E 7 9 4 5 1028.1 1028.1 0.2
29/03:00am 10.9 9.4 10.7 99 0.1 E 9 11 5 6 1028.1 1028.1 0.2
29/02:30am 10.8 9.9 10.6 99 0.1 ESE 6 9 3 5 1028.2 1028.2 0.2
29/02:00am 11.1 10.1 10.9 99 0.1 ESE 7 9 4 5 1028.4 1028.4 0.2
29/01:30am 10.7 9.2 10.5 99 0.1 ESE 9 11 5 6 1028.2 1028.2 0.2
29/01:00am 10.6 10.0 10.4 99 0.1 S 4 4 2 2 1028.4 1028.4 0.2
29/12:30am 10.7 10.1 10.5 99 0.1 SSW 4 6 2 3 1028.4 1028.4 0.2
29/12:00am 10.6 10.0 10.3 98 0.2 SW 4 4 2 2 1028.3 1028.3 0.2
 
Date/Time
EST
Tmp

°C
App
Tmp
°C
Dew
Point
°C
Rel
Hum
%
Delta-T

°C
Wind Press
QNH
hPa
Press
MSL
hPa
Rain
since
9 am
mm
Dir
 
Spd
km/h
Gust
km/h
Spd
kts
Gust
kts
28/11:30pm 10.9 10.0 10.6 98 0.2 SSW 6 7 3 4 1028.4 1028.4 0.2
28/11:00pm 11.0 10.1 10.7 98 0.2 SW 6 6 3 3 1028.4 1028.4 0.2
28/10:30pm 10.9 10.7 10.4 97 0.3 SSW 2 4 1 2 1028.4 1028.4 0.2
28/10:00pm 10.9 9.9 10.4 97 0.3 SW 6 7 3 4 1028.7 1028.7 0.2
28/09:30pm 10.7 9.7 10.2 97 0.3 SW 6 9 3 5 1028.6 1028.6 0.2
28/09:00pm 10.9 9.9 10.3 96 0.3 SSW 6 6 3 3 1028.6 1028.6 0.2
28/08:30pm 10.9 10.7 10.3 96 0.3 SSE 2 4 1 2 1028.4 1028.4 0.2
28/08:00pm 11.1 10.9 10.3 95 0.4 ESE 2 7 1 4 1028.2 1028.2 0.2
28/07:30pm 11.7 9.9 10.9 95 0.4 ESE 11 17 6 9 1028.0 1028.0 0.2
28/07:00pm 11.9 11.1 11.1 95 0.4 SE 6 7 3 4 1027.9 1027.9 0.2
28/06:30pm 11.3 10.1 10.2 93 0.6 SSE 7 9 4 5 1027.9 1027.9 0.2
28/06:00pm 11.3 10.1 9.7 90 0.8 SSE 6 9 3 5 1027.8 1027.8 0.2
28/05:30pm 12.3 11.0 10.0 86 1.2 S 7 9 4 5 1027.6 1027.6 0.2
28/05:00pm 13.8 12.9 10.8 82 1.6 S 6 9 3 5 1027.4 1027.4 0.2
28/04:30pm 13.6 12.5 10.8 83 1.5 S 7 9 4 5 1027.4 1027.4 0.2
28/04:00pm 14.5 13.7 10.9 79 1.9 S 6 9 3 5 1027.4 1027.4 0.2
28/03:30pm 15.0 14.2 11.2 78 2.0 S 6 9 3 5 1027.5 1027.5 0.2
28/03:00pm 15.9 15.4 11.9 77 2.2 S 6 9 3 5 1027.5 1027.5 0.2
28/02:30pm 15.9 15.2 11.5 75 2.4 S 6 9 3 5 1027.5 1027.5 0.2
28/02:00pm 16.1 15.5 12.3 78 2.1 S 7 9 4 5 1027.6 1027.6 0.2
28/01:30pm 14.2 13.7 10.6 79 1.9 SSE 4 6 2 3 1027.8 1027.8 0.2
28/01:00pm 14.3 13.9 11.1 81 1.7 SE 4 6 2 3 1028.1 1028.1 0.2
28/12:30pm 13.8 12.9 10.6 81 1.7 ESE 6 7 3 4 1028.4 1028.4 0.2
28/12:00pm 14.8 14.1 11.4 80 1.8 E 6 7 3 4 1028.6 1028.6 0.0
28/11:30am 14.7 14.5 11.7 82 1.6 ENE 4 6 2 3 1028.9 1028.9 0.0
28/11:00am 14.0 13.3 12.0 88 1.1 ENE 7 9 4 5 1029.2 1029.2 0.0
28/10:30am 11.0 9.7 9.8 92 0.6 N 7 11 4 6 1029.5 1029.5 0.0
28/10:00am 11.3 10.5 11.1 99 0.1 NNE 6 9 3 5 1029.6 1029.6 0.0
28/09:30am 9.7 8.3 9.6 99 0.0 ENE 7 9 4 5 1029.7 1029.7 0.0
28/09:00am 9.8 7.7 9.7 99 0.0 ENE 11 13 6 7 1029.8 1029.8 0.0
28/08:30am 8.8 6.4 8.7 99 0.0 NE 11 15 6 8 1029.7 1029.7 0.0
28/08:00am 8.4 5.9 8.3 99 0.0 NNE 11 15 6 8 1029.6 1029.6 0.0
28/07:30am 8.0 6.2 7.9 99 0.0 N 7 13 4 7 1029.6 1029.6 0.0
28/07:00am 8.6 6.2 8.5 99 0.0 NE 11 13 6 7 1029.3 1029.3 0.0
28/06:30am 8.6 6.2 8.5 99 0.0 NE 11 13 6 7 1029.2 1029.2 0.0
28/06:00am 8.7 6.7 8.6 99 0.0 N 9 13 5 7 1029.0 1029.0 0.0
28/05:30am 8.8 6.4 8.7 99 0.0 NNE 11 15 6 8 1028.6 1028.6 0.0
28/05:00am 9.0 6.7 8.9 99 0.0 NNE 11 17 6 9 1028.6 1028.6 0.0
28/04:30am 8.9 6.9 8.8 99 0.0 NNE 9 13 5 7 1028.6 1028.6 0.0
28/04:00am 8.5 6.8 8.4 99 0.0 NNE 7 11 4 6 1028.6 1028.6 0.0
28/03:30am 8.6 7.1 8.5 99 0.0 N 6 11 3 6 1028.6 1028.6 0.0
28/03:00am 8.7 7.1 8.6 99 0.0 N 7 13 4 7 1028.6 1028.6 0.0
28/02:30am 9.2 8.3 9.1 99 0.0 N 4 9 2 5 1028.6 1028.6 0.0
28/02:00am 8.8 7.8 8.7 99 0.0 NNW 4 6 2 3 1028.8 1028.8 0.0
28/01:30am 7.5 6.5 7.4 99 0.0 NW 2 4 1 2 1029.0 1029.0 0.0
28/01:00am 7.5 5.8 7.4 99 0.0 WNW 6 7 3 4 1029.0 1029.0 0.0
28/12:30am 7.3 5.3 7.2 99 0.0 WNW 7 9 4 5 1029.1 1029.1 0.0
28/12:00am 7.4 5.6 7.3 99 0.0 NW 6 9 3 5 1029.0 1029.0 0.0
 
Date/Time
EST
Tmp

°C
App
Tmp
°C
Dew
Point
°C
Rel
Hum
%
Delta-T

°C
Wind Press
QNH
hPa
Press
MSL
hPa
Rain
since
9 am
mm
Dir
 
Spd
km/h
Gust
km/h
Spd
kts
Gust
kts
27/11:30pm 7.9 6.1 7.8 99 0.0 W 7 9 4 5 1029.2 1029.2 0.0
27/11:00pm 8.3 6.6 8.2 99 0.0 W 7 11 4 6 1029.1 1029.1 0.0
27/10:30pm 8.8 8.5 8.5 98 0.1 CALM 0 2 0 1 1029.1 1029.1 0.0
27/10:00pm 9.3 9.1 9.0 98 0.1 CALM 0 4 0 2 1028.9 1028.9 0.0
27/09:30pm 9.5 9.3 9.2 98 0.1 CALM 0 0 0 0 1028.9 1028.9 0.0
27/09:00pm 10.3 9.0 10.0 98 0.2 E 7 11 4 6 1028.9 1028.9 0.0
27/08:30pm 10.1 9.0 9.8 98 0.2 SSE 6 7 3 4 1028.7 1028.7 0.0
27/08:00pm 10.4 9.7 10.1 98 0.2 SSE 4 7 2 4 1028.6 1028.6 0.0
27/07:30pm 10.3 9.5 9.8 97 0.3 S 4 7 2 4 1028.3 1028.3 0.0
27/07:00pm 10.4 9.7 9.9 97 0.3 SSE 4 7 2 4 1028.4 1028.4 0.0
27/06:30pm 10.5 9.8 10.0 97 0.3 SE 4 7 2 4 1028.2 1028.2 0.0
27/06:00pm 10.6 9.5 10.1 97 0.3 S 6 9 3 5 1028.0 1028.0 0.0
27/05:30pm 10.6 9.0 10.1 97 0.3 SSW 9 19 5 10 1028.1 1028.1 0.0
27/05:00pm 10.9 9.7 10.4 97 0.3 S 7 13 4 7 1028.0 1028.0 0.0
27/04:30pm 11.2 9.3 10.4 95 0.4 SSW 11 19 6 10 1027.8 1027.8 0.0
27/04:00pm 11.8 9.9 10.5 92 0.7 SSW 11 20 6 11 1027.7 1027.7 0.0
27/03:30pm 14.0 13.4 12.2 89 1.0 S 7 13 4 7 1027.4 1027.4 0.0
27/03:00pm 14.0 13.4 12.4 90 0.9 S 7 11 4 6 1027.3 1027.3 0.0
27/02:30pm 13.7 13.0 12.1 90 0.9 S 7 13 4 7 1027.3 1027.3 0.0
27/02:00pm 13.0 11.4 11.4 90 0.8 SSW 11 20 6 11 1027.6 1027.6 0.0
27/01:30pm 15.0 14.6 12.5 85 1.4 S 6 7 3 4 1027.5 1027.5 0.0
27/01:00pm 14.2 14.1 12.1 87 1.1 E 4 4 2 2 1027.7 1027.7 0.0
27/12:30pm 12.7 12.0 11.4 92 0.7 NNW 6 9 3 5 1027.9 1027.9 0.0
27/12:00pm 11.9 11.1 11.7 99 0.1 NW 7 11 4 6 1028.2 1028.2 0.0
27/11:30am 11.1 9.7 10.9 99 0.1 NNW 9 11 5 6 1028.4 1028.4 0.0
27/11:00am 10.9 9.4 10.7 99 0.1 NNW 9 13 5 7 1028.7 1028.7 0.0
27/10:30am 10.3 9.0 10.1 99 0.1 NNW 7 11 4 6 1028.8 1028.8 0.0
27/10:00am 10.0 8.7 9.9 99 0.0 N 7 11 4 6 1028.7 1028.7 0.0
27/09:30am 9.6 7.4 9.5 99 0.0 NNE 11 15 6 8 1028.5 1028.5 0.0
27/09:00am 9.2 6.5 9.1 99 0.0 NNE 13 17 7 9 1028.3 1028.3 0.2
27/08:30am 8.9 6.5 8.8 99 0.0 NNE 11 17 6 9 1028.3 1028.3 0.2
27/08:00am 8.9 6.5 8.8 99 0.0 N 11 17 6 9 1027.9 1027.9 0.2
27/07:30am 9.6 7.8 9.5 99 0.0 N 9 13 5 7 1027.9 1027.9 0.2
27/07:00am 9.4 7.9 9.3 99 0.0 NNE 7 11 4 6 1027.5 1027.5 0.2
27/06:30am 9.1 7.2 9.0 99 0.0 NNE 9 15 5 8 1027.1 1027.1 0.2
27/06:00am 9.0 7.1 8.9 99 0.0 N 9 13 5 7 1027.0 1027.0 0.2
27/05:30am 9.2 6.9 9.1 99 0.0 N 11 15 6 8 1026.9 1026.9 0.2
27/05:00am 9.3 6.7 9.2 99 0.0 NNW 13 17 7 9 1026.8 1026.8 0.2
27/04:30am 9.1 6.7 8.8 98 0.1 N 11 15 6 8 1026.8 1026.8 0.2
27/04:00am 9.6 6.9 9.1 97 0.2 N 13 15 7 8 1026.4 1026.4 0.2
27/03:30am 10.6 8.9 9.8 95 0.4 N 9 13 5 7 1026.4 1026.4 0.2
27/03:00am 10.7 9.0 9.9 95 0.4 NNE 9 15 5 8 1026.3 1026.3 0.2
27/02:30am 10.9 8.9 10.0 94 0.5 N 11 15 6 8 1026.5 1026.5 0.2
27/02:00am 11.1 9.0 9.9 92 0.6 N 11 17 6 9 1026.2 1026.2 0.2
27/01:30am 11.7 9.6 9.9 89 0.9 N 11 13 6 7 1026.4 1026.4 0.2
27/01:00am 12.0 10.7 10.1 88 1.0 N 7 11 4 6 1026.3 1026.3 0.2
27/12:30am 12.0 10.4 10.2 89 0.9 N 9 13 5 7 1026.2 1026.2 0.2
27/12:00am 11.8 9.1 10.4 91 0.7 ENE 15 19 8 10 1026.1 1026.1 0.2
 
Date/Time
EST
Tmp

°C
App
Tmp
°C
Dew
Point
°C
Rel
Hum
%
Delta-T

°C
Wind Press
QNH
hPa
Press
MSL
hPa
Rain
since
9 am
mm
Dir
 
Spd
km/h
Gust
km/h
Spd
kts
Gust
kts
26/11:30pm 11.7 8.5 9.8 88 1.0 ENE 17 20 9 11 1026.2 1026.2 0.2
26/11:00pm 11.9 9.0 9.8 87 1.1 E 15 17 8 9 1026.3 1026.3 0.2
26/10:30pm 12.1 8.9 10.0 87 1.1 E 17 19 9 10 1026.6 1026.6 0.2
26/10:00pm 12.1 9.7 10.0 87 1.1 E 13 17 7 9 1026.9 1026.9 0.2
26/09:30pm 12.2 9.4 10.1 87 1.1 E 15 17 8 9 1027.1 1027.1 0.2
26/09:00pm 12.4 9.6 10.1 86 1.2 E 15 19 8 10 1027.3 1027.3 0.2
26/08:30pm 12.3 10.6 9.9 85 1.2 E 9 13 5 7 1027.2 1027.2 0.2
26/08:00pm 12.3 11.3 10.2 87 1.1 SSE 6 9 3 5 1027.1 1027.1 0.2
26/07:30pm 12.8 12.0 10.9 88 1.0 SE 6 9 3 5 1026.7 1026.7 0.2
26/07:00pm 13.0 12.0 10.2 83 1.4 SSW 6 7 3 4 1026.7 1026.7 0.2
26/06:30pm 13.1 11.7 9.5 79 1.8 ENE 7 11 4 6 1026.3 1026.3 0.2
26/06:00pm 14.7 11.9 10.1 74 2.4 ESE 15 19 8 10 1025.7 1025.7 0.2
26/05:30pm 14.8 12.0 10.0 73 2.5 E 15 19 8 10 1025.8 1025.8 0.2
26/05:00pm 15.6 12.5 10.4 71 2.7 E 17 20 9 11 1025.8 1025.8 0.2
26/04:30pm 15.9 11.9 10.4 70 2.9 E 22 28 12 15 1025.7 1025.7 0.2
26/04:00pm 15.8 11.9 10.8 72 2.6 E 22 28 12 15 1025.7 1025.7 0.2
26/03:30pm 16.1 11.9 11.1 72 2.7 E 24 30 13 16 1025.6 1025.6 0.2

Latest Capital City Observations: Canberra | Sydney | Melbourne | Brisbane | Adelaide | Perth | Hobart | Darwin

Other Formats:

Comma delimited format used in spreadsheet applications
http://www.bom.gov.au/fwo/IDV60901/IDV60901.94892.axf

JavaScript Object Notation format (JSON) in row-major order
http://www.bom.gov.au/fwo/IDV60901/IDV60901.94892.json